sensor_id;sensor_type;location;lat;lon;timestamp;P1;durP1;ratioP1;P2;durP2;ratioP2
19043;SDS011;9654;52.302;8.120;2024-02-14T00:00:57;7.63;;;3.03;;
19043;SDS011;9654;52.302;8.120;2024-02-14T00:03:24;6.60;;;3.30;;
19043;SDS011;9654;52.302;8.120;2024-02-14T00:05:52;5.23;;;3.43;;
19043;SDS011;9654;52.302;8.120;2024-02-14T00:08:21;8.33;;;3.20;;
19043;SDS011;9654;52.302;8.120;2024-02-14T00:10:48;5.43;;;3.50;;
19043;SDS011;9654;52.302;8.120;2024-02-14T00:13:16;10.57;;;3.53;;
19043;SDS011;9654;52.302;8.120;2024-02-14T00:15:44;6.10;;;3.30;;
19043;SDS011;9654;52.302;8.120;2024-02-14T00:18:11;7.60;;;3.57;;
19043;SDS011;9654;52.302;8.120;2024-02-14T00:20:38;5.67;;;3.33;;
19043;SDS011;9654;52.302;8.120;2024-02-14T00:23:07;6.07;;;3.37;;
19043;SDS011;9654;52.302;8.120;2024-02-14T00:25:34;8.20;;;3.60;;
19043;SDS011;9654;52.302;8.120;2024-02-14T00:28:00;5.40;;;2.77;;
19043;SDS011;9654;52.302;8.120;2024-02-14T00:30:30;5.03;;;3.30;;
19043;SDS011;9654;52.302;8.120;2024-02-14T00:32:57;6.60;;;3.53;;
19043;SDS011;9654;52.302;8.120;2024-02-14T00:35:23;6.90;;;4.20;;
19043;SDS011;9654;52.302;8.120;2024-02-14T00:37:51;4.10;;;2.97;;
19043;SDS011;9654;52.302;8.120;2024-02-14T00:40:18;8.77;;;4.00;;
19043;SDS011;9654;52.302;8.120;2024-02-14T00:42:45;9.63;;;4.20;;
19043;SDS011;9654;52.302;8.120;2024-02-14T00:45:12;8.23;;;4.23;;
19043;SDS011;9654;52.302;8.120;2024-02-14T00:47:40;7.87;;;3.97;;
19043;SDS011;9654;52.302;8.120;2024-02-14T00:50:08;6.47;;;3.80;;
19043;SDS011;9654;52.302;8.120;2024-02-14T00:52:35;5.30;;;3.30;;
19043;SDS011;9654;52.302;8.120;2024-02-14T00:55:02;5.10;;;3.50;;
19043;SDS011;9654;52.302;8.120;2024-02-14T00:57:29;7.90;;;4.70;;
19043;SDS011;9654;52.302;8.120;2024-02-14T00:59:56;6.93;;;3.70;;
19043;SDS011;9654;52.302;8.120;2024-02-14T01:02:23;7.47;;;4.40;;
19043;SDS011;9654;52.302;8.120;2024-02-14T01:04:52;8.30;;;4.33;;
19043;SDS011;9654;52.302;8.120;2024-02-14T01:07:19;4.30;;;3.77;;
19043;SDS011;9654;52.302;8.120;2024-02-14T01:09:46;18.43;;;4.87;;
19043;SDS011;9654;52.302;8.120;2024-02-14T01:12:13;8.60;;;3.77;;
19043;SDS011;9654;52.302;8.120;2024-02-14T01:14:40;9.07;;;4.77;;
19043;SDS011;9654;52.302;8.120;2024-02-14T01:17:08;5.20;;;4.07;;
19043;SDS011;9654;52.302;8.120;2024-02-14T01:19:35;7.23;;;3.90;;
19043;SDS011;9654;52.302;8.120;2024-02-14T01:22:03;8.90;;;4.13;;
19043;SDS011;9654;52.302;8.120;2024-02-14T01:24:31;8.47;;;4.70;;
19043;SDS011;9654;52.302;8.120;2024-02-14T01:26:58;10.03;;;4.30;;
19043;SDS011;9654;52.302;8.120;2024-02-14T01:29:25;8.37;;;4.70;;
19043;SDS011;9654;52.302;8.120;2024-02-14T01:31:52;8.30;;;4.60;;
19043;SDS011;9654;52.302;8.120;2024-02-14T01:34:19;9.37;;;4.40;;
19043;SDS011;9654;52.302;8.120;2024-02-14T01:36:47;6.83;;;4.27;;
19043;SDS011;9654;52.302;8.120;2024-02-14T01:39:15;10.83;;;5.43;;
19043;SDS011;9654;52.302;8.120;2024-02-14T01:41:44;13.47;;;5.30;;
19043;SDS011;9654;52.302;8.120;2024-02-14T01:44:13;8.70;;;5.50;;
19043;SDS011;9654;52.302;8.120;2024-02-14T01:46:40;13.37;;;5.90;;
19043;SDS011;9654;52.302;8.120;2024-02-14T01:49:07;10.47;;;5.47;;
19043;SDS011;9654;52.302;8.120;2024-02-14T01:51:36;8.53;;;5.10;;
19043;SDS011;9654;52.302;8.120;2024-02-14T01:54:06;7.80;;;5.53;;
19043;SDS011;9654;52.302;8.120;2024-02-14T01:56:34;8.23;;;5.50;;
19043;SDS011;9654;52.302;8.120;2024-02-14T01:59:01;11.03;;;5.73;;
19043;SDS011;9654;52.302;8.120;2024-02-14T02:01:29;9.40;;;5.53;;
19043;SDS011;9654;52.302;8.120;2024-02-14T02:03:57;14.13;;;5.70;;
19043;SDS011;9654;52.302;8.120;2024-02-14T02:06:24;7.33;;;5.67;;
19043;SDS011;9654;52.302;8.120;2024-02-14T02:08:52;13.63;;;6.10;;
19043;SDS011;9654;52.302;8.120;2024-02-14T02:11:19;9.27;;;5.53;;
19043;SDS011;9654;52.302;8.120;2024-02-14T02:13:48;11.87;;;6.00;;
19043;SDS011;9654;52.302;8.120;2024-02-14T02:16:15;7.10;;;5.80;;
19043;SDS011;9654;52.302;8.120;2024-02-14T02:18:44;12.50;;;7.17;;
19043;SDS011;9654;52.302;8.120;2024-02-14T02:21:11;8.07;;;5.93;;
19043;SDS011;9654;52.302;8.120;2024-02-14T02:23:40;11.70;;;5.80;;
19043;SDS011;9654;52.302;8.120;2024-02-14T02:26:10;9.57;;;6.20;;
19043;SDS011;9654;52.302;8.120;2024-02-14T02:28:37;7.83;;;5.73;;
19043;SDS011;9654;52.302;8.120;2024-02-14T02:31:04;8.07;;;6.10;;
19043;SDS011;9654;52.302;8.120;2024-02-14T02:33:32;9.07;;;6.27;;
19043;SDS011;9654;52.302;8.120;2024-02-14T02:35:59;13.50;;;6.40;;
19043;SDS011;9654;52.302;8.120;2024-02-14T02:38:26;7.30;;;5.60;;
19043;SDS011;9654;52.302;8.120;2024-02-14T02:40:54;11.80;;;5.87;;
19043;SDS011;9654;52.302;8.120;2024-02-14T02:43:21;9.93;;;5.87;;
19043;SDS011;9654;52.302;8.120;2024-02-14T02:45:48;8.53;;;6.33;;
19043;SDS011;9654;52.302;8.120;2024-02-14T02:48:15;11.47;;;6.77;;
19043;SDS011;9654;52.302;8.120;2024-02-14T02:50:42;10.60;;;6.70;;
19043;SDS011;9654;52.302;8.120;2024-02-14T02:53:09;11.73;;;6.30;;
19043;SDS011;9654;52.302;8.120;2024-02-14T02:55:36;8.87;;;6.80;;
19043;SDS011;9654;52.302;8.120;2024-02-14T02:58:05;12.80;;;7.97;;
19043;SDS011;9654;52.302;8.120;2024-02-14T03:00:32;10.27;;;6.70;;
19043;SDS011;9654;52.302;8.120;2024-02-14T03:02:59;12.43;;;6.80;;
19043;SDS011;9654;52.302;8.120;2024-02-14T03:05:27;8.17;;;6.67;;
19043;SDS011;9654;52.302;8.120;2024-02-14T03:07:58;8.50;;;6.87;;
19043;SDS011;9654;52.302;8.120;2024-02-14T03:10:25;9.67;;;6.63;;
19043;SDS011;9654;52.302;8.120;2024-02-14T03:12:54;7.90;;;6.50;;
19043;SDS011;9654;52.302;8.120;2024-02-14T03:15:22;11.20;;;6.60;;
19043;SDS011;9654;52.302;8.120;2024-02-14T03:17:51;10.57;;;6.67;;
19043;SDS011;9654;52.302;8.120;2024-02-14T03:20:17;14.20;;;6.40;;
19043;SDS011;9654;52.302;8.120;2024-02-14T03:22:44;12.07;;;6.83;;
19043;SDS011;9654;52.302;8.120;2024-02-14T03:25:12;8.80;;;6.90;;
19043;SDS011;9654;52.302;8.120;2024-02-14T03:27:40;11.50;;;6.83;;
19043;SDS011;9654;52.302;8.120;2024-02-14T03:30:07;13.10;;;7.70;;
19043;SDS011;9654;52.302;8.120;2024-02-14T03:32:36;9.37;;;7.23;;
19043;SDS011;9654;52.302;8.120;2024-02-14T03:35:03;12.60;;;8.53;;
19043;SDS011;9654;52.302;8.120;2024-02-14T03:37:31;11.13;;;8.07;;
19043;SDS011;9654;52.302;8.120;2024-02-14T03:39:58;10.97;;;8.37;;
19043;SDS011;9654;52.302;8.120;2024-02-14T03:42:25;11.37;;;8.47;;
19043;SDS011;9654;52.302;8.120;2024-02-14T03:44:52;14.97;;;9.07;;
19043;SDS011;9654;52.302;8.120;2024-02-14T03:47:25;11.73;;;8.03;;
19043;SDS011;9654;52.302;8.120;2024-02-14T03:49:53;15.40;;;8.97;;
19043;SDS011;9654;52.302;8.120;2024-02-14T03:52:20;15.43;;;9.33;;
19043;SDS011;9654;52.302;8.120;2024-02-14T03:54:47;14.53;;;9.20;;
19043;SDS011;9654;52.302;8.120;2024-02-14T03:57:15;13.27;;;8.93;;
19043;SDS011;9654;52.302;8.120;2024-02-14T03:59:43;13.47;;;9.33;;
19043;SDS011;9654;52.302;8.120;2024-02-14T04:02:09;12.70;;;9.87;;
19043;SDS011;9654;52.302;8.120;2024-02-14T04:04:36;14.93;;;9.17;;
19043;SDS011;9654;52.302;8.120;2024-02-14T04:07:05;13.33;;;9.37;;
19043;SDS011;9654;52.302;8.120;2024-02-14T04:09:33;18.17;;;9.70;;
19043;SDS011;9654;52.302;8.120;2024-02-14T04:12:00;17.60;;;8.57;;
19043;SDS011;9654;52.302;8.120;2024-02-14T04:14:27;14.70;;;9.20;;
19043;SDS011;9654;52.302;8.120;2024-02-14T04:16:54;12.97;;;9.20;;
19043;SDS011;9654;52.302;8.120;2024-02-14T04:19:21;14.57;;;10.10;;
19043;SDS011;9654;52.302;8.120;2024-02-14T04:21:48;21.33;;;14.33;;
19043;SDS011;9654;52.302;8.120;2024-02-14T04:24:16;14.43;;;10.10;;
19043;SDS011;9654;52.302;8.120;2024-02-14T04:26:43;12.73;;;10.03;;
19043;SDS011;9654;52.302;8.120;2024-02-14T04:29:10;24.30;;;15.10;;
19043;SDS011;9654;52.302;8.120;2024-02-14T04:31:37;22.00;;;11.00;;
19043;SDS011;9654;52.302;8.120;2024-02-14T04:34:04;16.17;;;10.50;;
19043;SDS011;9654;52.302;8.120;2024-02-14T04:36:33;16.77;;;10.17;;
19043;SDS011;9654;52.302;8.120;2024-02-14T04:39:01;17.23;;;9.43;;
19043;SDS011;9654;52.302;8.120;2024-02-14T04:41:30;18.03;;;10.63;;
19043;SDS011;9654;52.302;8.120;2024-02-14T04:43:57;14.40;;;10.47;;
19043;SDS011;9654;52.302;8.120;2024-02-14T04:46:23;14.57;;;10.47;;
19043;SDS011;9654;52.302;8.120;2024-02-14T04:48:50;16.97;;;11.40;;
19043;SDS011;9654;52.302;8.120;2024-02-14T04:51:17;17.97;;;12.17;;
19043;SDS011;9654;52.302;8.120;2024-02-14T04:53:44;15.27;;;11.60;;
19043;SDS011;9654;52.302;8.120;2024-02-14T04:56:11;21.90;;;12.57;;
19043;SDS011;9654;52.302;8.120;2024-02-14T04:58:39;14.87;;;11.33;;
19043;SDS011;9654;52.302;8.120;2024-02-14T05:01:07;18.50;;;11.30;;
19043;SDS011;9654;52.302;8.120;2024-02-14T05:03:33;13.80;;;10.50;;
19043;SDS011;9654;52.302;8.120;2024-02-14T05:06:01;17.50;;;10.87;;
19043;SDS011;9654;52.302;8.120;2024-02-14T05:08:29;16.00;;;10.17;;
19043;SDS011;9654;52.302;8.120;2024-02-14T05:10:56;13.33;;;9.80;;
19043;SDS011;9654;52.302;8.120;2024-02-14T05:13:23;12.90;;;9.73;;
19043;SDS011;9654;52.302;8.120;2024-02-14T05:15:51;14.20;;;9.80;;
19043;SDS011;9654;52.302;8.120;2024-02-14T05:18:18;11.80;;;9.60;;
19043;SDS011;9654;52.302;8.120;2024-02-14T05:20:45;12.77;;;9.47;;
19043;SDS011;9654;52.302;8.120;2024-02-14T05:23:12;14.13;;;10.20;;
19043;SDS011;9654;52.302;8.120;2024-02-14T05:25:39;11.87;;;9.30;;
19043;SDS011;9654;52.302;8.120;2024-02-14T05:28:05;12.50;;;9.10;;
19043;SDS011;9654;52.302;8.120;2024-02-14T05:30:32;10.50;;;8.53;;
19043;SDS011;9654;52.302;8.120;2024-02-14T05:33:02;10.50;;;8.80;;
19043;SDS011;9654;52.302;8.120;2024-02-14T05:35:29;9.50;;;8.20;;
19043;SDS011;9654;52.302;8.120;2024-02-14T05:37:56;13.23;;;9.17;;
19043;SDS011;9654;52.302;8.120;2024-02-14T05:40:23;11.23;;;8.50;;
19043;SDS011;9654;52.302;8.120;2024-02-14T05:42:50;10.10;;;8.20;;
19043;SDS011;9654;52.302;8.120;2024-02-14T05:45:17;11.90;;;8.37;;
19043;SDS011;9654;52.302;8.120;2024-02-14T05:47:44;10.43;;;8.07;;
19043;SDS011;9654;52.302;8.120;2024-02-14T05:50:12;10.50;;;8.60;;
19043;SDS011;9654;52.302;8.120;2024-02-14T05:52:39;14.07;;;8.93;;
19043;SDS011;9654;52.302;8.120;2024-02-14T05:55:06;11.40;;;9.17;;
19043;SDS011;9654;52.302;8.120;2024-02-14T05:57:34;11.50;;;8.33;;
19043;SDS011;9654;52.302;8.120;2024-02-14T06:00:01;10.73;;;8.57;;
19043;SDS011;9654;52.302;8.120;2024-02-14T06:02:29;10.40;;;8.53;;
19043;SDS011;9654;52.302;8.120;2024-02-14T06:04:56;13.57;;;9.00;;
19043;SDS011;9654;52.302;8.120;2024-02-14T06:07:24;9.20;;;7.83;;
19043;SDS011;9654;52.302;8.120;2024-02-14T06:09:51;9.27;;;7.57;;
19043;SDS011;9654;52.302;8.120;2024-02-14T06:12:18;9.63;;;7.70;;
19043;SDS011;9654;52.302;8.120;2024-02-14T06:14:47;9.67;;;7.60;;
19043;SDS011;9654;52.302;8.120;2024-02-14T06:17:15;11.03;;;8.47;;
19043;SDS011;9654;52.302;8.120;2024-02-14T06:19:42;9.90;;;8.00;;
19043;SDS011;9654;52.302;8.120;2024-02-14T06:22:09;8.83;;;7.40;;
19043;SDS011;9654;52.302;8.120;2024-02-14T06:24:38;8.53;;;7.17;;
19043;SDS011;9654;52.302;8.120;2024-02-14T06:27:06;8.30;;;7.40;;
19043;SDS011;9654;52.302;8.120;2024-02-14T06:29:33;8.87;;;7.57;;
19043;SDS011;9654;52.302;8.120;2024-02-14T06:32:00;9.70;;;7.77;;
19043;SDS011;9654;52.302;8.120;2024-02-14T06:34:27;12.07;;;8.47;;
19043;SDS011;9654;52.302;8.120;2024-02-14T06:36:54;11.00;;;8.87;;
19043;SDS011;9654;52.302;8.120;2024-02-14T06:39:21;12.83;;;9.33;;
19043;SDS011;9654;52.302;8.120;2024-02-14T06:41:49;13.47;;;10.23;;
19043;SDS011;9654;52.302;8.120;2024-02-14T06:44:16;13.80;;;9.93;;
19043;SDS011;9654;52.302;8.120;2024-02-14T06:46:43;15.30;;;10.70;;
19043;SDS011;9654;52.302;8.120;2024-02-14T06:49:10;16.60;;;11.07;;
19043;SDS011;9654;52.302;8.120;2024-02-14T06:51:37;15.63;;;10.87;;
19043;SDS011;9654;52.302;8.120;2024-02-14T06:54:04;17.50;;;11.50;;
19043;SDS011;9654;52.302;8.120;2024-02-14T06:56:31;18.57;;;12.67;;
19043;SDS011;9654;52.302;8.120;2024-02-14T06:58:59;17.80;;;12.43;;
19043;SDS011;9654;52.302;8.120;2024-02-14T07:01:27;20.23;;;13.20;;
19043;SDS011;9654;52.302;8.120;2024-02-14T07:03:54;17.97;;;12.10;;
19043;SDS011;9654;52.302;8.120;2024-02-14T07:06:21;16.50;;;11.50;;
19043;SDS011;9654;52.302;8.120;2024-02-14T07:08:48;18.63;;;12.80;;
19043;SDS011;9654;52.302;8.120;2024-02-14T07:11:15;20.27;;;13.03;;
19043;SDS011;9654;52.302;8.120;2024-02-14T07:13:42;22.37;;;14.10;;
19043;SDS011;9654;52.302;8.120;2024-02-14T07:16:10;24.10;;;15.57;;
19043;SDS011;9654;52.302;8.120;2024-02-14T07:18:38;27.80;;;15.07;;
19043;SDS011;9654;52.302;8.120;2024-02-14T07:21:05;29.03;;;16.27;;
19043;SDS011;9654;52.302;8.120;2024-02-14T07:23:32;27.97;;;15.13;;
19043;SDS011;9654;52.302;8.120;2024-02-14T07:25:59;27.03;;;15.63;;
19043;SDS011;9654;52.302;8.120;2024-02-14T07:28:27;28.50;;;17.37;;
19043;SDS011;9654;52.302;8.120;2024-02-14T07:30:54;27.23;;;16.13;;
19043;SDS011;9654;52.302;8.120;2024-02-14T07:33:22;29.60;;;17.30;;
19043;SDS011;9654;52.302;8.120;2024-02-14T07:35:50;26.53;;;16.07;;
19043;SDS011;9654;52.302;8.120;2024-02-14T07:38:16;27.93;;;17.97;;
19043;SDS011;9654;52.302;8.120;2024-02-14T07:40:43;26.83;;;15.97;;
19043;SDS011;9654;52.302;8.120;2024-02-14T07:43:10;27.60;;;17.13;;
19043;SDS011;9654;52.302;8.120;2024-02-14T07:45:37;31.70;;;16.83;;
19043;SDS011;9654;52.302;8.120;2024-02-14T07:48:05;25.43;;;16.33;;
19043;SDS011;9654;52.302;8.120;2024-02-14T07:50:35;26.93;;;15.93;;
19043;SDS011;9654;52.302;8.120;2024-02-14T07:53:02;28.60;;;16.67;;
19043;SDS011;9654;52.302;8.120;2024-02-14T07:55:29;26.03;;;15.33;;
19043;SDS011;9654;52.302;8.120;2024-02-14T07:57:56;29.20;;;16.97;;
19043;SDS011;9654;52.302;8.120;2024-02-14T08:00:24;24.27;;;15.27;;
19043;SDS011;9654;52.302;8.120;2024-02-14T08:02:51;22.17;;;14.07;;
19043;SDS011;9654;52.302;8.120;2024-02-14T08:05:18;28.20;;;15.53;;
19043;SDS011;9654;52.302;8.120;2024-02-14T08:07:46;28.73;;;16.40;;
19043;SDS011;9654;52.302;8.120;2024-02-14T08:10:13;35.43;;;18.30;;
19043;SDS011;9654;52.302;8.120;2024-02-14T08:12:39;35.33;;;23.00;;
19043;SDS011;9654;52.302;8.120;2024-02-14T08:15:06;27.07;;;15.13;;
19043;SDS011;9654;52.302;8.120;2024-02-14T08:17:34;28.67;;;15.57;;
19043;SDS011;9654;52.302;8.120;2024-02-14T08:20:01;28.67;;;16.67;;
19043;SDS011;9654;52.302;8.120;2024-02-14T08:22:30;28.23;;;16.50;;
19043;SDS011;9654;52.302;8.120;2024-02-14T08:24:58;32.83;;;17.07;;
19043;SDS011;9654;52.302;8.120;2024-02-14T08:27:25;32.00;;;17.10;;
19043;SDS011;9654;52.302;8.120;2024-02-14T08:29:52;32.60;;;17.63;;
19043;SDS011;9654;52.302;8.120;2024-02-14T08:32:20;28.97;;;15.47;;
19043;SDS011;9654;52.302;8.120;2024-02-14T08:34:47;28.27;;;16.50;;
19043;SDS011;9654;52.302;8.120;2024-02-14T08:37:16;27.93;;;16.87;;
19043;SDS011;9654;52.302;8.120;2024-02-14T08:39:43;31.73;;;18.23;;
19043;SDS011;9654;52.302;8.120;2024-02-14T08:42:11;29.20;;;17.00;;
19043;SDS011;9654;52.302;8.120;2024-02-14T08:44:38;35.37;;;17.90;;
19043;SDS011;9654;52.302;8.120;2024-02-14T08:47:06;38.10;;;22.20;;
19043;SDS011;9654;52.302;8.120;2024-02-14T08:49:34;31.60;;;19.17;;
19043;SDS011;9654;52.302;8.120;2024-02-14T08:52:00;34.50;;;18.83;;
19043;SDS011;9654;52.302;8.120;2024-02-14T08:54:27;29.30;;;16.67;;
19043;SDS011;9654;52.302;8.120;2024-02-14T08:56:54;35.80;;;19.33;;
19043;SDS011;9654;52.302;8.120;2024-02-14T08:59:25;27.27;;;17.17;;
19043;SDS011;9654;52.302;8.120;2024-02-14T09:01:52;42.13;;;21.90;;
19043;SDS011;9654;52.302;8.120;2024-02-14T09:04:19;41.70;;;20.87;;
19043;SDS011;9654;52.302;8.120;2024-02-14T09:06:46;32.00;;;19.93;;
19043;SDS011;9654;52.302;8.120;2024-02-14T09:09:13;39.30;;;22.27;;
19043;SDS011;9654;52.302;8.120;2024-02-14T09:11:40;33.30;;;18.07;;
19043;SDS011;9654;52.302;8.120;2024-02-14T09:14:07;42.97;;;21.63;;
19043;SDS011;9654;52.302;8.120;2024-02-14T09:16:36;43.70;;;22.43;;
19043;SDS011;9654;52.302;8.120;2024-02-14T09:19:03;35.87;;;20.67;;
19043;SDS011;9654;52.302;8.120;2024-02-14T09:21:32;26.70;;;16.20;;
19043;SDS011;9654;52.302;8.120;2024-02-14T09:24:01;25.40;;;14.87;;
19043;SDS011;9654;52.302;8.120;2024-02-14T09:26:28;22.13;;;13.43;;
19043;SDS011;9654;52.302;8.120;2024-02-14T09:28:55;24.43;;;14.97;;
19043;SDS011;9654;52.302;8.120;2024-02-14T09:31:22;28.50;;;16.40;;
19043;SDS011;9654;52.302;8.120;2024-02-14T09:33:50;57.07;;;29.67;;
19043;SDS011;9654;52.302;8.120;2024-02-14T09:36:21;40.63;;;20.43;;
19043;SDS011;9654;52.302;8.120;2024-02-14T09:38:49;44.40;;;23.27;;
19043;SDS011;9654;52.302;8.120;2024-02-14T09:41:17;79.07;;;36.10;;
19043;SDS011;9654;52.302;8.120;2024-02-14T09:43:51;42.77;;;19.40;;
19043;SDS011;9654;52.302;8.120;2024-02-14T09:46:18;69.43;;;36.80;;
19043;SDS011;9654;52.302;8.120;2024-02-14T09:48:45;50.47;;;27.10;;
19043;SDS011;9654;52.302;8.120;2024-02-14T09:51:14;41.13;;;23.77;;
19043;SDS011;9654;52.302;8.120;2024-02-14T09:53:41;44.33;;;23.47;;
19043;SDS011;9654;52.302;8.120;2024-02-14T09:56:10;41.93;;;22.10;;
19043;SDS011;9654;52.302;8.120;2024-02-14T09:58:36;58.07;;;29.67;;
19043;SDS011;9654;52.302;8.120;2024-02-14T10:01:04;45.67;;;22.23;;
19043;SDS011;9654;52.302;8.120;2024-02-14T10:03:31;35.27;;;18.83;;
19043;SDS011;9654;52.302;8.120;2024-02-14T10:05:58;41.10;;;22.17;;
19043;SDS011;9654;52.302;8.120;2024-02-14T10:08:27;38.63;;;20.83;;
19043;SDS011;9654;52.302;8.120;2024-02-14T10:10:56;44.87;;;24.73;;
19043;SDS011;9654;52.302;8.120;2024-02-14T10:13:26;52.63;;;29.00;;
19043;SDS011;9654;52.302;8.120;2024-02-14T10:15:53;32.47;;;18.90;;
19043;SDS011;9654;52.302;8.120;2024-02-14T10:18:20;32.13;;;19.90;;
19043;SDS011;9654;52.302;8.120;2024-02-14T10:20:54;38.03;;;22.53;;
19043;SDS011;9654;52.302;8.120;2024-02-14T10:23:21;26.17;;;16.47;;
19043;SDS011;9654;52.302;8.120;2024-02-14T10:25:50;46.77;;;26.27;;
19043;SDS011;9654;52.302;8.120;2024-02-14T10:28:20;37.77;;;24.10;;
19043;SDS011;9654;52.302;8.120;2024-02-14T10:30:47;37.03;;;22.77;;
19043;SDS011;9654;52.302;8.120;2024-02-14T10:33:15;34.13;;;21.03;;
19043;SDS011;9654;52.302;8.120;2024-02-14T10:35:42;31.03;;;19.07;;
19043;SDS011;9654;52.302;8.120;2024-02-14T10:38:10;43.10;;;26.20;;
19043;SDS011;9654;52.302;8.120;2024-02-14T10:40:38;43.40;;;25.37;;
19043;SDS011;9654;52.302;8.120;2024-02-14T10:43:06;40.83;;;25.17;;
19043;SDS011;9654;52.302;8.120;2024-02-14T10:45:34;32.70;;;18.03;;
19043;SDS011;9654;52.302;8.120;2024-02-14T10:48:02;34.40;;;20.80;;
19043;SDS011;9654;52.302;8.120;2024-02-14T10:50:32;40.83;;;23.80;;
19043;SDS011;9654;52.302;8.120;2024-02-14T10:53:00;31.23;;;21.27;;
19043;SDS011;9654;52.302;8.120;2024-02-14T10:55:31;32.33;;;19.80;;
19043;SDS011;9654;52.302;8.120;2024-02-14T10:57:59;33.27;;;20.77;;
19043;SDS011;9654;52.302;8.120;2024-02-14T11:00:28;35.43;;;21.53;;
19043;SDS011;9654;52.302;8.120;2024-02-14T11:02:57;38.47;;;22.30;;
19043;SDS011;9654;52.302;8.120;2024-02-14T11:05:25;34.13;;;19.93;;
19043;SDS011;9654;52.302;8.120;2024-02-14T11:07:52;46.97;;;28.73;;
19043;SDS011;9654;52.302;8.120;2024-02-14T11:10:20;39.60;;;22.40;;
19043;SDS011;9654;52.302;8.120;2024-02-14T11:12:48;38.83;;;24.43;;
19043;SDS011;9654;52.302;8.120;2024-02-14T11:15:16;38.53;;;21.93;;
19043;SDS011;9654;52.302;8.120;2024-02-14T11:17:45;41.53;;;24.40;;
19043;SDS011;9654;52.302;8.120;2024-02-14T11:20:17;33.20;;;19.40;;
19043;SDS011;9654;52.302;8.120;2024-02-14T11:22:53;42.27;;;22.27;;
19043;SDS011;9654;52.302;8.120;2024-02-14T11:25:30;43.23;;;24.30;;
19043;SDS011;9654;52.302;8.120;2024-02-14T11:27:59;38.53;;;22.53;;
19043;SDS011;9654;52.302;8.120;2024-02-14T11:30:30;52.53;;;29.83;;
19043;SDS011;9654;52.302;8.120;2024-02-14T11:33:14;34.50;;;20.83;;
19043;SDS011;9654;52.302;8.120;2024-02-14T11:35:43;40.20;;;22.23;;
19043;SDS011;9654;52.302;8.120;2024-02-14T11:38:11;38.60;;;24.03;;
19043;SDS011;9654;52.302;8.120;2024-02-14T11:40:40;36.80;;;22.97;;
19043;SDS011;9654;52.302;8.120;2024-02-14T11:43:11;56.67;;;34.67;;
19043;SDS011;9654;52.302;8.120;2024-02-14T11:45:39;57.43;;;34.40;;
19043;SDS011;9654;52.302;8.120;2024-02-14T11:48:07;26.73;;;18.20;;
19043;SDS011;9654;52.302;8.120;2024-02-14T11:50:39;27.97;;;19.97;;
19043;SDS011;9654;52.302;8.120;2024-02-14T11:53:08;27.70;;;19.13;;
19043;SDS011;9654;52.302;8.120;2024-02-14T11:55:37;28.17;;;18.67;;
19043;SDS011;9654;52.302;8.120;2024-02-14T11:58:07;29.33;;;19.00;;
19043;SDS011;9654;52.302;8.120;2024-02-14T12:00:34;26.80;;;18.43;;
19043;SDS011;9654;52.302;8.120;2024-02-14T12:03:03;25.23;;;17.10;;
19043;SDS011;9654;52.302;8.120;2024-02-14T12:05:32;21.17;;;14.60;;
19043;SDS011;9654;52.302;8.120;2024-02-14T12:08:01;25.43;;;15.27;;
19043;SDS011;9654;52.302;8.120;2024-02-14T12:10:31;25.40;;;18.57;;
19043;SDS011;9654;52.302;8.120;2024-02-14T12:12:57;21.30;;;14.73;;
19043;SDS011;9654;52.302;8.120;2024-02-14T12:15:25;25.60;;;17.37;;
19043;SDS011;9654;52.302;8.120;2024-02-14T12:17:54;25.80;;;17.13;;
19043;SDS011;9654;52.302;8.120;2024-02-14T12:20:21;23.43;;;14.70;;
19043;SDS011;9654;52.302;8.120;2024-02-14T12:22:49;30.77;;;18.57;;
19043;SDS011;9654;52.302;8.120;2024-02-14T12:25:18;22.97;;;14.60;;
19043;SDS011;9654;52.302;8.120;2024-02-14T12:27:49;21.87;;;14.43;;
19043;SDS011;9654;52.302;8.120;2024-02-14T12:30:17;19.67;;;13.07;;
19043;SDS011;9654;52.302;8.120;2024-02-14T12:32:45;18.17;;;12.57;;
19043;SDS011;9654;52.302;8.120;2024-02-14T12:35:12;21.50;;;12.90;;
19043;SDS011;9654;52.302;8.120;2024-02-14T12:37:39;19.00;;;12.37;;
19043;SDS011;9654;52.302;8.120;2024-02-14T12:40:06;17.90;;;12.27;;
19043;SDS011;9654;52.302;8.120;2024-02-14T12:42:36;18.63;;;12.23;;
19043;SDS011;9654;52.302;8.120;2024-02-14T12:45:03;21.77;;;12.70;;
19043;SDS011;9654;52.302;8.120;2024-02-14T12:47:30;16.87;;;11.87;;
19043;SDS011;9654;52.302;8.120;2024-02-14T12:50:00;18.43;;;11.50;;
19043;SDS011;9654;52.302;8.120;2024-02-14T12:52:27;16.23;;;11.80;;
19043;SDS011;9654;52.302;8.120;2024-02-14T12:54:53;18.40;;;12.43;;
19043;SDS011;9654;52.302;8.120;2024-02-14T12:57:20;21.57;;;12.30;;
19043;SDS011;9654;52.302;8.120;2024-02-14T12:59:49;19.83;;;13.10;;
19043;SDS011;9654;52.302;8.120;2024-02-14T13:02:16;18.23;;;12.43;;
19043;SDS011;9654;52.302;8.120;2024-02-14T13:04:43;20.20;;;12.97;;
19043;SDS011;9654;52.302;8.120;2024-02-14T13:07:10;19.07;;;12.27;;
19043;SDS011;9654;52.302;8.120;2024-02-14T13:09:36;20.80;;;13.90;;
19043;SDS011;9654;52.302;8.120;2024-02-14T13:12:04;24.10;;;13.90;;
19043;SDS011;9654;52.302;8.120;2024-02-14T13:14:34;22.23;;;14.07;;
19043;SDS011;9654;52.302;8.120;2024-02-14T13:17:03;23.90;;;14.10;;
19043;SDS011;9654;52.302;8.120;2024-02-14T13:19:30;28.60;;;14.63;;
19043;SDS011;9654;52.302;8.120;2024-02-14T13:21:57;21.83;;;15.17;;
19043;SDS011;9654;52.302;8.120;2024-02-14T13:24:24;24.97;;;15.67;;
19043;SDS011;9654;52.302;8.120;2024-02-14T13:26:51;24.00;;;15.77;;
19043;SDS011;9654;52.302;8.120;2024-02-14T13:29:18;23.63;;;16.30;;
19043;SDS011;9654;52.302;8.120;2024-02-14T13:31:45;32.33;;;18.80;;
19043;SDS011;9654;52.302;8.120;2024-02-14T13:34:13;34.93;;;21.43;;
19043;SDS011;9654;52.302;8.120;2024-02-14T13:36:40;34.20;;;22.37;;
19043;SDS011;9654;52.302;8.120;2024-02-14T13:39:07;48.67;;;29.63;;
19043;SDS011;9654;52.302;8.120;2024-02-14T13:41:34;40.73;;;26.13;;
19043;SDS011;9654;52.302;8.120;2024-02-14T13:44:02;46.33;;;26.93;;
19043;SDS011;9654;52.302;8.120;2024-02-14T13:46:30;56.77;;;34.10;;
19043;SDS011;9654;52.302;8.120;2024-02-14T13:48:56;36.77;;;24.83;;
19043;SDS011;9654;52.302;8.120;2024-02-14T13:51:25;43.77;;;28.20;;
19043;SDS011;9654;52.302;8.120;2024-02-14T13:53:52;42.30;;;26.30;;
19043;SDS011;9654;52.302;8.120;2024-02-14T13:56:19;46.77;;;28.60;;
19043;SDS011;9654;52.302;8.120;2024-02-14T13:58:47;46.47;;;28.57;;
19043;SDS011;9654;52.302;8.120;2024-02-14T14:01:15;57.03;;;33.80;;
19043;SDS011;9654;52.302;8.120;2024-02-14T14:03:42;43.67;;;28.27;;
19043;SDS011;9654;52.302;8.120;2024-02-14T14:06:09;45.83;;;28.27;;
19043;SDS011;9654;52.302;8.120;2024-02-14T14:08:37;45.90;;;31.40;;
19043;SDS011;9654;52.302;8.120;2024-02-14T14:11:05;40.93;;;25.27;;
19043;SDS011;9654;52.302;8.120;2024-02-14T14:13:33;53.10;;;32.10;;
19043;SDS011;9654;52.302;8.120;2024-02-14T14:16:00;42.23;;;26.83;;
19043;SDS011;9654;52.302;8.120;2024-02-14T14:18:26;40.77;;;28.30;;
19043;SDS011;9654;52.302;8.120;2024-02-14T14:20:53;40.73;;;27.23;;
19043;SDS011;9654;52.302;8.120;2024-02-14T14:23:20;46.13;;;27.10;;
19043;SDS011;9654;52.302;8.120;2024-02-14T14:25:48;40.13;;;25.63;;
19043;SDS011;9654;52.302;8.120;2024-02-14T14:28:15;42.20;;;25.53;;
19043;SDS011;9654;52.302;8.120;2024-02-14T14:30:45;47.57;;;28.10;;
19043;SDS011;9654;52.302;8.120;2024-02-14T14:33:13;38.67;;;25.00;;
19043;SDS011;9654;52.302;8.120;2024-02-14T14:35:39;35.30;;;22.87;;
19043;SDS011;9654;52.302;8.120;2024-02-14T14:38:07;47.50;;;32.17;;
19043;SDS011;9654;52.302;8.120;2024-02-14T14:40:33;41.50;;;23.10;;
19043;SDS011;9654;52.302;8.120;2024-02-14T14:43:03;36.17;;;23.33;;
19043;SDS011;9654;52.302;8.120;2024-02-14T14:45:30;39.43;;;23.67;;